LFMY

Salon-de-Provence (BA 701) Air Base

Airport
ICAO code
LFMY
Summary
ICAO Region
EUR
ICAO Territory
Location

, Provence-Alpes-Cote d'Azur

Serving
Salon
Elevation
195 ft
Coordinates
43° 36' 23" N , 5° 6' 33" E
Metar
Observation
LFMY 030300Z AUTO 05004KT 010V100 9999 ///TCU 07/04 Q1010
Station
Salon
Date/Time
2022-12-03 03:00:00
Wind direction
50°
Wind speed
04 kts
Lowest cloud amount
n/a
Temperature
7°C
Dew point
4°C
Humidity
81%
QNH
1010 hPa
Weather condition
n/a

Runways

Designator Length Width Surface Rops
9/27 0 0 UNK No/No
17L/35R 0 0 UNK No/No
17R/35L 0 0 UNK No/No
16/34 2001 45 CON No/No

Airport map

Aerial View

SKYbrary Partners:

Safety knowledge contributed by: